Bloomfield, NY (14469)

7:51 PM EST on December 09, 2016 (GMT -0500)
Bristol Hills | | Change Station

Elev 1230 ft 42.87 °N, 77.44 °W | Updated 1 minute ago

Snow
Snow
24.1 °F
Feels Like 24 °F
N
2.0
Wind Variable Wind from NW
Gusts 2.0 mph

Today
High -- | Low -- °F
--% Chance of Precip.
Yesterday
High -- | Low -- °F
Precip. -- in
Pressure 30.29 in
Visibility 2.0 miles
Clouds Scattered Clouds 1700 ft
Mostly Cloudy 2800 ft
Overcast 3800 ft
Windchill 24 °F
Dew Point 19 °F
Humidity 80%
Rainfall 0.00 in
Snow Depth Not available.
7:29 AM 4:35 PM
Waxing Gibbous, 78% visible
SPECI KROC 100028Z 27008KT 2SM -SN BR SCT017 BKN028 OVC038 M03/M05 A3029 RMK AO2 P0000 T10331050
Pressure 30.29 in
Visibility 2.0 miles
Clouds Scattered Clouds 1700 ft
Mostly Cloudy 2800 ft
Overcast 3800 ft
Windchill 24 °F
Dew Point 19 °F
Humidity 80%
Rainfall 0.00 in
Snow Depth Not available.
7:29 AM 4:35 PM
Waxing Gibbous, 78% visible
SPECI KROC 100028Z 27008KT 2SM -SN BR SCT017 BKN028 OVC038 M03/M05 A3029 RMK AO2 P0000 T10331050

10-Day Weather Forecast

Almanac

Astronomy

Dec. 09, 2016 Rise Set
Actual Time
Civil Twilight
Nautical Twilight
Astronomical Twilight
Moon
Length of Visible Light
Length of Day
Tomorrow will be .
, % of the Moon is Illuminated

Today's Extremes

State Highs State Lows

Community

WunderPhotos

Upload Photos

1,956,534 photos uploaded!

WunderBlog® & News

Nearby

Air Quality

  Air Quality AQ Index Pollutant
Not available.

Snow Depth

Station Depth Elevation

Earthquake Activity

City Distance Mag. Time & Date
Minimum magnitude displayed is 2.5.

Coastal Water Temperatures

Place Temperature

Stations

Nearby Weather Stations

Station Location Temp. Windchill Dew Point Humidity Wind Precip. Elev Updated Type
                   

Watches & Warnings

There are currently no watches in effect.